This is the latest recevied weather packets stored in our database for station/object IU5JAE-13. If no packets are shown the sender has not sent any weather packets the latest 1 day(s).
| Time | Temp. | Humidity | Pressure | Rain* | Wind** | Luminosity | Snow |
|---|---|---|---|---|---|---|---|
| 1778030719 | 12.22° C | 99% | 1010.4 hPa | 6.1 mm | - | 0 W/m² | - |
| 1778030116 | 12.22° C | 99% | 1010.7 hPa | 6.86 mm | - | 0 W/m² | - |
| 1778029534 | 12.22° C | 99% | 1010.7 hPa | 7.87 mm | - | 0 W/m² | - |
| 1778028329 | 12.78° C | 99% | 1011.1 hPa | 6.1 mm | - | 0 W/m² | - |
| 1778027727 | 12.78° C | 99% | 1011.2 hPa | 3.81 mm | - | 0 W/m² | - |
| 1778026522 | 12.78° C | 99% | 1011.3 hPa | 4.83 mm | - | 0 W/m² | - |
| 1778025317 | 12.78° C | 99% | 1011.6 hPa | 9.4 mm | - | 0 W/m² | - |
| 1778024735 | 12.78° C | 99% | 1011.5 hPa | 13.72 mm | - | 0 W/m² | - |
| 1778023530 | 13.33° C | 99% | 1011.4 hPa | 13.72 mm | - | 0 W/m² | - |
| 1778020518 | 13.33° C | 99% | 1012 hPa | 0.51 mm | - | 0 W/m² | - |
| 1778018731 | 13.89° C | 99% | 1012.1 hPa | 4.32 mm | - | 0 W/m² | - |
| 1778017526 | 13.89° C | 99% | 1012 hPa | 5.33 mm | - | 0 W/m² | - |
| 1778014534 | 13.89° C | 99% | 1012.6 hPa | 1.02 mm | - | 0 W/m² | - |
| 1778011522 | 14.44° C | 98% | 1012.8 hPa | 1.02 mm | - | 0 W/m² | - |
| 1778009735 | 14.44° C | 98% | 1012.7 hPa | 0.76 mm | - | 0 W/m² | - |
| 1778008530 | 14.44° C | 97% | 1012.6 hPa | 0.51 mm | - | 0 W/m² | - |
| 1778006723 | 14.44° C | 96% | 1012.5 hPa | 0 mm | - | 0 W/m² | - |
| 1778003731 | 14.44° C | 96% | 1012.4 hPa | 0 mm | - | 6 W/m² | - |
| 1778002526 | 15° C | 96% | 1012.5 hPa | 0 mm | - | 19 W/m² | - |
| 1778000719 | 15.56° C | 94% | 1012.4 hPa | 0 mm | - | 22 W/m² | - |
* Rain latest hour (hover to see other rain measurements)
** Current wind speed in m/s (hover to see current wind gust speed)